Carlos, Minnesota
Current Conditions -  °F | °C
As of 11:53 PM on Saturday 22 Nov 2014 (Local Time) from KAXN Reporting Station
Haze Haze  
Wind Chill: 27°   Ceiling: 300
Heat Index: 34°   Visibility: 2mi
Dew Point: 34°   Wind: 9mph
Humidity: 100%   Direction: 160°SSE
Pressure: 29.4"   Gusts: NA
Location:  45.97°N, 95.29°W
Report Text: KAXN 230553Z AUTO 16008KT 2SM BR OVC003 01/01 A2940 RMK AO2 SLP970 T00110011 10011 20000 400441044 55019
Loading
Personal Weather Stations






























Interactive Weather Map New forecast layout! Learn more

10-Day Weather Forecast

Advertisements
Track Severe Weather on mobile